Tolovana Park, Oregon
Current Conditions -  °F | °C
As of 9:55 PM on Saturday 20 Dec 2014 (Local Time) from KAST Reporting Station
Light Rain Light Rain  
Wind Chill: 56°   Ceiling: 1200
Heat Index: 56°   Visibility: 10mi
Dew Point: 53°   Wind: 22mph
Humidity: 90%   Direction: 240°WSW
Pressure: 29.68"   Gusts: 29mph
Location:  45.87°N, 123.96°W
Report Text: KAST 210555Z AUTO 24019G25KT 10SM -RA FEW007 OVC012 13/12 A2968 RMK AO2 PK WND 24033/0508 PRESRR SLP049 P0001 60007 T01330117 10139 20133 53025 $
Loading
Personal Weather Stations






























Interactive Weather Map New forecast layout! Learn more

10-Day Weather Forecast

Advertisements
Track Severe Weather on mobile